sensor_id;sensor_type;location;lat;lon;timestamp;P1;durP1;ratioP1;P2;durP2;ratioP2
68097;SDS011;54886;47.036;15.466;2022-09-02T00:01:25;5.15;;;1.90;;
68097;SDS011;54886;47.036;15.466;2022-09-02T00:03:57;7.57;;;1.90;;
68097;SDS011;54886;47.036;15.466;2022-09-02T00:06:24;4.20;;;1.90;;
68097;SDS011;54886;47.036;15.466;2022-09-02T00:11:19;2.92;;;1.80;;
68097;SDS011;54886;47.036;15.466;2022-09-02T00:13:47;11.63;;;2.13;;
68097;SDS011;54886;47.036;15.466;2022-09-02T00:16:13;4.80;;;1.80;;
68097;SDS011;54886;47.036;15.466;2022-09-02T00:18:39;2.60;;;1.60;;
68097;SDS011;54886;47.036;15.466;2022-09-02T00:21:05;2.28;;;1.80;;
68097;SDS011;54886;47.036;15.466;2022-09-02T00:23:31;5.30;;;2.03;;
68097;SDS011;54886;47.036;15.466;2022-09-02T00:25:57;3.17;;;1.70;;
68097;SDS011;54886;47.036;15.466;2022-09-02T00:28:23;3.28;;;1.80;;
68097;SDS011;54886;47.036;15.466;2022-09-02T00:30:48;3.33;;;1.90;;
68097;SDS011;54886;47.036;15.466;2022-09-02T00:33:13;3.45;;;2.00;;
68097;SDS011;54886;47.036;15.466;2022-09-02T00:35:39;4.18;;;1.90;;
68097;SDS011;54886;47.036;15.466;2022-09-02T00:38:05;6.82;;;1.85;;
68097;SDS011;54886;47.036;15.466;2022-09-02T00:40:31;7.82;;;1.92;;
68097;SDS011;54886;47.036;15.466;2022-09-02T00:42:57;3.33;;;2.20;;
68097;SDS011;54886;47.036;15.466;2022-09-02T00:45:23;3.80;;;1.80;;
68097;SDS011;54886;47.036;15.466;2022-09-02T00:47:48;4.95;;;1.85;;
68097;SDS011;54886;47.036;15.466;2022-09-02T00:50:16;3.13;;;1.73;;
68097;SDS011;54886;47.036;15.466;2022-09-02T00:52:46;4.75;;;2.15;;
68097;SDS011;54886;47.036;15.466;2022-09-02T00:57:47;4.05;;;1.90;;
68097;SDS011;54886;47.036;15.466;2022-09-02T01:02:43;2.17;;;1.73;;
68097;SDS011;54886;47.036;15.466;2022-09-02T01:05:14;3.13;;;1.80;;
68097;SDS011;54886;47.036;15.466;2022-09-02T01:07:41;2.08;;;1.60;;
68097;SDS011;54886;47.036;15.466;2022-09-02T01:10:10;6.10;;;2.05;;
68097;SDS011;54886;47.036;15.466;2022-09-02T01:12:38;4.10;;;1.80;;
68097;SDS011;54886;47.036;15.466;2022-09-02T01:15:05;5.28;;;1.90;;
68097;SDS011;54886;47.036;15.466;2022-09-02T01:17:32;1.90;;;1.70;;
68097;SDS011;54886;47.036;15.466;2022-09-02T01:20:04;3.10;;;1.83;;
68097;SDS011;54886;47.036;15.466;2022-09-02T01:22:32;4.45;;;1.88;;
68097;SDS011;54886;47.036;15.466;2022-09-02T01:25:02;3.70;;;1.80;;
68097;SDS011;54886;47.036;15.466;2022-09-02T01:27:33;2.38;;;1.80;;
68097;SDS011;54886;47.036;15.466;2022-09-02T01:29:59;2.10;;;1.90;;
68097;SDS011;54886;47.036;15.466;2022-09-02T01:32:25;4.55;;;2.15;;
68097;SDS011;54886;47.036;15.466;2022-09-02T01:34:52;7.05;;;1.80;;
68097;SDS011;54886;47.036;15.466;2022-09-02T01:37:18;1.90;;;1.70;;
68097;SDS011;54886;47.036;15.466;2022-09-02T01:39:45;3.90;;;1.90;;
68097;SDS011;54886;47.036;15.466;2022-09-02T01:42:10;5.13;;;1.80;;
68097;SDS011;54886;47.036;15.466;2022-09-02T01:44:36;2.22;;;1.80;;
68097;SDS011;54886;47.036;15.466;2022-09-02T01:47:08;3.65;;;2.08;;
68097;SDS011;54886;47.036;15.466;2022-09-02T01:49:35;4.15;;;1.80;;
68097;SDS011;54886;47.036;15.466;2022-09-02T01:52:00;4.43;;;1.80;;
68097;SDS011;54886;47.036;15.466;2022-09-02T01:54:26;4.55;;;1.80;;
68097;SDS011;54886;47.036;15.466;2022-09-02T01:56:51;3.38;;;1.80;;
68097;SDS011;54886;47.036;15.466;2022-09-02T01:59:17;3.05;;;1.80;;
68097;SDS011;54886;47.036;15.466;2022-09-02T02:01:44;3.13;;;1.95;;
68097;SDS011;54886;47.036;15.466;2022-09-02T02:04:11;4.75;;;1.80;;
68097;SDS011;54886;47.036;15.466;2022-09-02T02:06:40;4.40;;;1.80;;
68097;SDS011;54886;47.036;15.466;2022-09-02T02:09:07;3.60;;;1.90;;
68097;SDS011;54886;47.036;15.466;2022-09-02T02:11:34;4.40;;;1.75;;
68097;SDS011;54886;47.036;15.466;2022-09-02T02:14:00;2.67;;;1.90;;
68097;SDS011;54886;47.036;15.466;2022-09-02T02:16:26;2.40;;;1.67;;
68097;SDS011;54886;47.036;15.466;2022-09-02T02:18:51;3.08;;;1.83;;
68097;SDS011;54886;47.036;15.466;2022-09-02T02:21:17;3.33;;;1.77;;
68097;SDS011;54886;47.036;15.466;2022-09-02T02:23:42;3.72;;;1.70;;
68097;SDS011;54886;47.036;15.466;2022-09-02T02:26:07;5.10;;;2.00;;
68097;SDS011;54886;47.036;15.466;2022-09-02T02:28:33;2.58;;;1.80;;
68097;SDS011;54886;47.036;15.466;2022-09-02T02:30:59;5.22;;;1.77;;
68097;SDS011;54886;47.036;15.466;2022-09-02T02:33:25;3.38;;;1.95;;
68097;SDS011;54886;47.036;15.466;2022-09-02T02:38:18;6.93;;;2.10;;
68097;SDS011;54886;47.036;15.466;2022-09-02T02:40:44;4.50;;;1.90;;
68097;SDS011;54886;47.036;15.466;2022-09-02T02:43:09;3.72;;;1.73;;
68097;SDS011;54886;47.036;15.466;2022-09-02T02:45:35;3.28;;;1.80;;
68097;SDS011;54886;47.036;15.466;2022-09-02T02:48:00;1.83;;;1.70;;
68097;SDS011;54886;47.036;15.466;2022-09-02T02:50:26;1.85;;;1.70;;
68097;SDS011;54886;47.036;15.466;2022-09-02T02:52:52;6.82;;;1.95;;
68097;SDS011;54886;47.036;15.466;2022-09-02T02:55:19;3.80;;;2.40;;
68097;SDS011;54886;47.036;15.466;2022-09-02T02:57:45;5.47;;;1.70;;
68097;SDS011;54886;47.036;15.466;2022-09-02T03:00:13;5.25;;;1.88;;
68097;SDS011;54886;47.036;15.466;2022-09-02T03:02:41;3.33;;;1.70;;
68097;SDS011;54886;47.036;15.466;2022-09-02T03:05:08;4.30;;;1.70;;
68097;SDS011;54886;47.036;15.466;2022-09-02T03:07:35;9.57;;;2.28;;
68097;SDS011;54886;47.036;15.466;2022-09-02T03:10:01;3.15;;;1.90;;
68097;SDS011;54886;47.036;15.466;2022-09-02T03:12:27;4.88;;;1.95;;
68097;SDS011;54886;47.036;15.466;2022-09-02T03:14:52;4.60;;;1.90;;
68097;SDS011;54886;47.036;15.466;2022-09-02T03:17:18;4.60;;;1.80;;
68097;SDS011;54886;47.036;15.466;2022-09-02T03:19:43;3.92;;;2.00;;
68097;SDS011;54886;47.036;15.466;2022-09-02T03:22:09;2.08;;;1.70;;
68097;SDS011;54886;47.036;15.466;2022-09-02T03:24:36;4.93;;;1.98;;
68097;SDS011;54886;47.036;15.466;2022-09-02T03:27:02;6.37;;;2.33;;
68097;SDS011;54886;47.036;15.466;2022-09-02T03:29:28;4.03;;;2.10;;
68097;SDS011;54886;47.036;15.466;2022-09-02T03:31:53;4.07;;;2.05;;
68097;SDS011;54886;47.036;15.466;2022-09-02T03:34:18;5.07;;;2.28;;
68097;SDS011;54886;47.036;15.466;2022-09-02T03:36:44;4.00;;;2.00;;
68097;SDS011;54886;47.036;15.466;2022-09-02T03:39:10;7.13;;;2.22;;
68097;SDS011;54886;47.036;15.466;2022-09-02T03:44:05;4.13;;;2.25;;
68097;SDS011;54886;47.036;15.466;2022-09-02T03:46:31;8.18;;;2.50;;
68097;SDS011;54886;47.036;15.466;2022-09-02T03:48:57;6.25;;;2.53;;
68097;SDS011;54886;47.036;15.466;2022-09-02T03:51:23;4.50;;;2.40;;
68097;SDS011;54886;47.036;15.466;2022-09-02T03:53:49;8.25;;;2.50;;
68097;SDS011;54886;47.036;15.466;2022-09-02T03:56:14;5.70;;;2.30;;
68097;SDS011;54886;47.036;15.466;2022-09-02T03:58:41;5.53;;;2.20;;
68097;SDS011;54886;47.036;15.466;2022-09-02T04:01:11;3.72;;;2.30;;
68097;SDS011;54886;47.036;15.466;2022-09-02T04:03:47;4.60;;;2.30;;
68097;SDS011;54886;47.036;15.466;2022-09-02T04:06:14;5.18;;;2.40;;
68097;SDS011;54886;47.036;15.466;2022-09-02T04:08:41;4.97;;;2.30;;
68097;SDS011;54886;47.036;15.466;2022-09-02T04:11:11;6.07;;;2.20;;
68097;SDS011;54886;47.036;15.466;2022-09-02T04:13:40;7.97;;;2.28;;
68097;SDS011;54886;47.036;15.466;2022-09-02T04:16:09;4.65;;;2.10;;
68097;SDS011;54886;47.036;15.466;2022-09-02T04:18:37;4.57;;;2.30;;
68097;SDS011;54886;47.036;15.466;2022-09-02T04:21:03;6.72;;;2.58;;
68097;SDS011;54886;47.036;15.466;2022-09-02T04:23:29;5.10;;;2.20;;
68097;SDS011;54886;47.036;15.466;2022-09-02T04:25:54;5.55;;;2.65;;
68097;SDS011;54886;47.036;15.466;2022-09-02T04:28:20;4.72;;;2.20;;
68097;SDS011;54886;47.036;15.466;2022-09-02T04:30:46;4.47;;;2.47;;
68097;SDS011;54886;47.036;15.466;2022-09-02T04:33:11;5.03;;;2.53;;
68097;SDS011;54886;47.036;15.466;2022-09-02T04:35:41;4.63;;;2.40;;
68097;SDS011;54886;47.036;15.466;2022-09-02T04:38:08;6.13;;;2.45;;
68097;SDS011;54886;47.036;15.466;2022-09-02T04:40:34;7.25;;;2.40;;
68097;SDS011;54886;47.036;15.466;2022-09-02T04:43:00;4.35;;;2.22;;
68097;SDS011;54886;47.036;15.466;2022-09-02T04:45:25;6.22;;;2.60;;
68097;SDS011;54886;47.036;15.466;2022-09-02T04:47:51;5.43;;;2.40;;
68097;SDS011;54886;47.036;15.466;2022-09-02T04:50:16;5.00;;;2.35;;
68097;SDS011;54886;47.036;15.466;2022-09-02T04:52:42;5.85;;;2.55;;
68097;SDS011;54886;47.036;15.466;2022-09-02T04:55:08;4.43;;;2.30;;
68097;SDS011;54886;47.036;15.466;2022-09-02T04:57:33;6.35;;;2.28;;
68097;SDS011;54886;47.036;15.466;2022-09-02T05:00:00;7.75;;;2.50;;
68097;SDS011;54886;47.036;15.466;2022-09-02T05:02:26;5.25;;;2.05;;
68097;SDS011;54886;47.036;15.466;2022-09-02T05:04:51;5.03;;;2.17;;
68097;SDS011;54886;47.036;15.466;2022-09-02T05:07:17;6.90;;;2.55;;
68097;SDS011;54886;47.036;15.466;2022-09-02T05:09:42;6.15;;;2.30;;
68097;SDS011;54886;47.036;15.466;2022-09-02T05:12:08;4.72;;;2.15;;
68097;SDS011;54886;47.036;15.466;2022-09-02T05:14:34;6.10;;;2.13;;
68097;SDS011;54886;47.036;15.466;2022-09-02T05:17:00;5.68;;;2.30;;
68097;SDS011;54886;47.036;15.466;2022-09-02T05:19:26;5.57;;;2.30;;
68097;SDS011;54886;47.036;15.466;2022-09-02T05:21:51;9.70;;;2.40;;
68097;SDS011;54886;47.036;15.466;2022-09-02T05:24:20;4.03;;;2.08;;
68097;SDS011;54886;47.036;15.466;2022-09-02T05:26:46;4.57;;;2.30;;
68097;SDS011;54886;47.036;15.466;2022-09-02T05:29:11;5.35;;;2.20;;
68097;SDS011;54886;47.036;15.466;2022-09-02T05:31:38;4.50;;;2.30;;
68097;SDS011;54886;47.036;15.466;2022-09-02T05:36:31;5.65;;;2.20;;
68097;SDS011;54886;47.036;15.466;2022-09-02T05:38:57;6.43;;;2.10;;
68097;SDS011;54886;47.036;15.466;2022-09-02T05:41:24;6.85;;;2.30;;
68097;SDS011;54886;47.036;15.466;2022-09-02T05:43:50;8.00;;;2.35;;
68097;SDS011;54886;47.036;15.466;2022-09-02T05:46:19;4.15;;;2.38;;
68097;SDS011;54886;47.036;15.466;2022-09-02T05:48:47;3.58;;;2.25;;
68097;SDS011;54886;47.036;15.466;2022-09-02T05:54:05;6.35;;;2.30;;
68097;SDS011;54886;47.036;15.466;2022-09-02T05:56:32;5.13;;;2.80;;
68097;SDS011;54886;47.036;15.466;2022-09-02T05:58:57;3.92;;;2.65;;
68097;SDS011;54886;47.036;15.466;2022-09-02T06:01:23;11.10;;;2.95;;
68097;SDS011;54886;47.036;15.466;2022-09-02T06:03:49;9.07;;;2.75;;
68097;SDS011;54886;47.036;15.466;2022-09-02T06:06:16;7.25;;;2.47;;
68097;SDS011;54886;47.036;15.466;2022-09-02T06:08:43;4.65;;;2.70;;
68097;SDS011;54886;47.036;15.466;2022-09-02T06:11:09;6.53;;;3.00;;
68097;SDS011;54886;47.036;15.466;2022-09-02T06:13:36;5.63;;;2.60;;
68097;SDS011;54886;47.036;15.466;2022-09-02T06:16:04;6.95;;;3.03;;
68097;SDS011;54886;47.036;15.466;2022-09-02T06:18:30;4.03;;;2.50;;
68097;SDS011;54886;47.036;15.466;2022-09-02T06:20:56;3.88;;;2.42;;
68097;SDS011;54886;47.036;15.466;2022-09-02T06:23:21;4.65;;;2.40;;
68097;SDS011;54886;47.036;15.466;2022-09-02T06:25:47;8.30;;;2.60;;
68097;SDS011;54886;47.036;15.466;2022-09-02T06:28:14;6.45;;;2.47;;
68097;SDS011;54886;47.036;15.466;2022-09-02T06:30:41;5.90;;;2.20;;
68097;SDS011;54886;47.036;15.466;2022-09-02T06:33:09;4.95;;;2.20;;
68097;SDS011;54886;47.036;15.466;2022-09-02T06:35:38;6.55;;;2.30;;
68097;SDS011;54886;47.036;15.466;2022-09-02T06:38:05;3.97;;;2.55;;
68097;SDS011;54886;47.036;15.466;2022-09-02T06:40:31;7.50;;;2.22;;
68097;SDS011;54886;47.036;15.466;2022-09-02T06:42:56;4.38;;;2.00;;
68097;SDS011;54886;47.036;15.466;2022-09-02T06:45:22;4.38;;;2.13;;
68097;SDS011;54886;47.036;15.466;2022-09-02T06:47:48;5.32;;;2.10;;
68097;SDS011;54886;47.036;15.466;2022-09-02T06:50:14;3.47;;;2.20;;
68097;SDS011;54886;47.036;15.466;2022-09-02T06:52:40;4.90;;;2.00;;
68097;SDS011;54886;47.036;15.466;2022-09-02T06:55:07;3.53;;;1.90;;
68097;SDS011;54886;47.036;15.466;2022-09-02T06:57:34;4.40;;;2.00;;
68097;SDS011;54886;47.036;15.466;2022-09-02T07:00:01;6.97;;;2.00;;
68097;SDS011;54886;47.036;15.466;2022-09-02T07:02:30;3.13;;;1.90;;
68097;SDS011;54886;47.036;15.466;2022-09-02T07:04:55;4.78;;;1.83;;
68097;SDS011;54886;47.036;15.466;2022-09-02T07:10:00;3.15;;;2.05;;
68097;SDS011;54886;47.036;15.466;2022-09-02T07:12:25;4.90;;;2.08;;
68097;SDS011;54886;47.036;15.466;2022-09-02T07:14:51;3.47;;;1.80;;
68097;SDS011;54886;47.036;15.466;2022-09-02T07:17:18;2.00;;;1.80;;
68097;SDS011;54886;47.036;15.466;2022-09-02T07:19:46;3.42;;;2.15;;
68097;SDS011;54886;47.036;15.466;2022-09-02T07:22:12;3.75;;;1.90;;
68097;SDS011;54886;47.036;15.466;2022-09-02T07:24:38;4.25;;;1.80;;
68097;SDS011;54886;47.036;15.466;2022-09-02T07:27:04;3.88;;;2.10;;
68097;SDS011;54886;47.036;15.466;2022-09-02T07:29:30;2.67;;;1.90;;
68097;SDS011;54886;47.036;15.466;2022-09-02T07:31:56;3.17;;;1.75;;
68097;SDS011;54886;47.036;15.466;2022-09-02T07:34:22;5.13;;;2.00;;
68097;SDS011;54886;47.036;15.466;2022-09-02T07:36:48;3.90;;;1.80;;
68097;SDS011;54886;47.036;15.466;2022-09-02T07:39:14;2.10;;;1.90;;
68097;SDS011;54886;47.036;15.466;2022-09-02T07:41:41;3.50;;;1.88;;
68097;SDS011;54886;47.036;15.466;2022-09-02T07:44:09;2.55;;;1.83;;
68097;SDS011;54886;47.036;15.466;2022-09-02T07:46:34;3.67;;;2.00;;
68097;SDS011;54886;47.036;15.466;2022-09-02T07:49:01;2.40;;;1.70;;
68097;SDS011;54886;47.036;15.466;2022-09-02T07:51:29;2.40;;;1.88;;
68097;SDS011;54886;47.036;15.466;2022-09-02T07:53:57;7.55;;;2.10;;
68097;SDS011;54886;47.036;15.466;2022-09-02T07:56:23;4.43;;;1.95;;
68097;SDS011;54886;47.036;15.466;2022-09-02T07:58:49;3.53;;;1.80;;
68097;SDS011;54886;47.036;15.466;2022-09-02T08:01:14;4.97;;;2.20;;
68097;SDS011;54886;47.036;15.466;2022-09-02T08:03:40;6.78;;;2.47;;
68097;SDS011;54886;47.036;15.466;2022-09-02T08:06:06;4.07;;;2.15;;
68097;SDS011;54886;47.036;15.466;2022-09-02T08:08:33;4.28;;;2.20;;
68097;SDS011;54886;47.036;15.466;2022-09-02T08:10:58;6.80;;;2.17;;
68097;SDS011;54886;47.036;15.466;2022-09-02T08:13:25;4.25;;;2.30;;
68097;SDS011;54886;47.036;15.466;2022-09-02T08:15:50;3.47;;;2.00;;
68097;SDS011;54886;47.036;15.466;2022-09-02T08:18:16;3.17;;;2.00;;
68097;SDS011;54886;47.036;15.466;2022-09-02T08:20:42;5.15;;;1.95;;
68097;SDS011;54886;47.036;15.466;2022-09-02T08:23:07;4.75;;;2.17;;
68097;SDS011;54886;47.036;15.466;2022-09-02T08:25:34;5.32;;;1.95;;
68097;SDS011;54886;47.036;15.466;2022-09-02T08:28:00;3.40;;;2.05;;
68097;SDS011;54886;47.036;15.466;2022-09-02T08:30:26;3.63;;;1.90;;
68097;SDS011;54886;47.036;15.466;2022-09-02T08:32:52;3.97;;;1.67;;
68097;SDS011;54886;47.036;15.466;2022-09-02T08:35:17;4.53;;;1.95;;
68097;SDS011;54886;47.036;15.466;2022-09-02T08:37:43;3.60;;;1.90;;
68097;SDS011;54886;47.036;15.466;2022-09-02T08:40:13;5.30;;;2.25;;
68097;SDS011;54886;47.036;15.466;2022-09-02T08:42:42;3.35;;;2.00;;
68097;SDS011;54886;47.036;15.466;2022-09-02T08:45:12;3.38;;;1.85;;
68097;SDS011;54886;47.036;15.466;2022-09-02T08:47:42;4.10;;;1.70;;
68097;SDS011;54886;47.036;15.466;2022-09-02T08:50:13;4.40;;;1.75;;
68097;SDS011;54886;47.036;15.466;2022-09-02T08:55:29;3.08;;;1.50;;
68097;SDS011;54886;47.036;15.466;2022-09-02T08:58:00;3.17;;;1.63;;
68097;SDS011;54886;47.036;15.466;2022-09-02T09:00:27;2.42;;;1.70;;
68097;SDS011;54886;47.036;15.466;2022-09-02T09:05:48;2.40;;;1.70;;
68097;SDS011;54886;47.036;15.466;2022-09-02T09:08:42;3.03;;;1.70;;
68097;SDS011;54886;47.036;15.466;2022-09-02T09:12:03;3.80;;;1.70;;
68097;SDS011;54886;47.036;15.466;2022-09-02T09:19:53;3.60;;;1.80;;
68097;SDS011;54886;47.036;15.466;2022-09-02T09:22:21;2.78;;;1.85;;
68097;SDS011;54886;47.036;15.466;2022-09-02T09:24:52;4.88;;;1.77;;
68097;SDS011;54886;47.036;15.466;2022-09-02T09:27:21;2.08;;;1.60;;
68097;SDS011;54886;47.036;15.466;2022-09-02T09:29:48;4.00;;;1.60;;
68097;SDS011;54886;47.036;15.466;2022-09-02T09:42:45;2.05;;;1.73;;
68097;SDS011;54886;47.036;15.466;2022-09-02T09:45:18;2.10;;;1.47;;
68097;SDS011;54886;47.036;15.466;2022-09-02T09:50:33;2.15;;;1.60;;
68097;SDS011;54886;47.036;15.466;2022-09-02T09:55:48;1.70;;;1.60;;
68097;SDS011;54886;47.036;15.466;2022-09-02T09:58:22;1.75;;;1.40;;
68097;SDS011;54886;47.036;15.466;2022-09-02T10:00:55;1.83;;;1.50;;
68097;SDS011;54886;47.036;15.466;2022-09-02T10:03:24;2.45;;;1.45;;
68097;SDS011;54886;47.036;15.466;2022-09-02T10:05:55;1.95;;;1.58;;
68097;SDS011;54886;47.036;15.466;2022-09-02T10:08:24;3.05;;;1.70;;
68097;SDS011;54886;47.036;15.466;2022-09-02T10:10:58;3.60;;;1.55;;
68097;SDS011;54886;47.036;15.466;2022-09-02T10:13:32;2.33;;;1.63;;
68097;SDS011;54886;47.036;15.466;2022-09-02T10:24:24;2.20;;;1.50;;
68097;SDS011;54886;47.036;15.466;2022-09-02T10:27:10;2.30;;;1.50;;
68097;SDS011;54886;47.036;15.466;2022-09-02T10:30:08;2.35;;;1.60;;
68097;SDS011;54886;47.036;15.466;2022-09-02T10:32:47;4.20;;;1.63;;
68097;SDS011;54886;47.036;15.466;2022-09-02T10:35:40;2.00;;;1.52;;
68097;SDS011;54886;47.036;15.466;2022-09-02T10:41:07;2.08;;;1.52;;
68097;SDS011;54886;47.036;15.466;2022-09-02T10:46:10;1.50;;;1.40;;
68097;SDS011;54886;47.036;15.466;2022-09-02T10:57:06;2.40;;;1.45;;
68097;SDS011;54886;47.036;15.466;2022-09-02T11:07:40;2.45;;;1.50;;
68097;SDS011;54886;47.036;15.466;2022-09-02T11:12:55;1.83;;;1.40;;
68097;SDS011;54886;47.036;15.466;2022-09-02T11:18:22;2.40;;;1.50;;
68097;SDS011;54886;47.036;15.466;2022-09-02T11:20:55;1.92;;;1.40;;
68097;SDS011;54886;47.036;15.466;2022-09-02T11:23:37;4.65;;;1.50;;
68097;SDS011;54886;47.036;15.466;2022-09-02T11:26:14;3.75;;;1.38;;
68097;SDS011;54886;47.036;15.466;2022-09-02T11:31:29;3.38;;;1.55;;
68097;SDS011;54886;47.036;15.466;2022-09-02T11:37:03;1.85;;;1.40;;
68097;SDS011;54886;47.036;15.466;2022-09-02T11:55:29;2.35;;;1.40;;
68097;SDS011;54886;47.036;15.466;2022-09-02T11:57:58;2.05;;;1.60;;
68097;SDS011;54886;47.036;15.466;2022-09-02T12:00:32;3.25;;;1.70;;
68097;SDS011;54886;47.036;15.466;2022-09-02T12:07:55;2.70;;;1.60;;
68097;SDS011;54886;47.036;15.466;2022-09-02T12:13:07;2.15;;;1.60;;
68097;SDS011;54886;47.036;15.466;2022-09-02T12:15:36;2.00;;;1.40;;
68097;SDS011;54886;47.036;15.466;2022-09-02T12:18:05;2.70;;;1.60;;
68097;SDS011;54886;47.036;15.466;2022-09-02T12:23:07;2.22;;;1.50;;
68097;SDS011;54886;47.036;15.466;2022-09-02T12:28:16;2.30;;;1.40;;
68097;SDS011;54886;47.036;15.466;2022-09-02T12:33:34;1.88;;;1.38;;
68097;SDS011;54886;47.036;15.466;2022-09-02T12:36:04;1.98;;;1.60;;
68097;SDS011;54886;47.036;15.466;2022-09-02T12:38:40;1.70;;;1.60;;
68097;SDS011;54886;47.036;15.466;2022-09-02T12:41:14;2.33;;;1.58;;
68097;SDS011;54886;47.036;15.466;2022-09-02T12:46:56;3.22;;;1.55;;
68097;SDS011;54886;47.036;15.466;2022-09-02T12:54:35;2.88;;;1.60;;
68097;SDS011;54886;47.036;15.466;2022-09-02T12:57:04;1.95;;;1.50;;
68097;SDS011;54886;47.036;15.466;2022-09-02T12:59:31;1.40;;;1.30;;
68097;SDS011;54886;47.036;15.466;2022-09-02T13:16:01;2.45;;;1.50;;
68097;SDS011;54886;47.036;15.466;2022-09-02T13:21:19;1.65;;;1.42;;
68097;SDS011;54886;47.036;15.466;2022-09-02T13:34:44;2.10;;;1.48;;
68097;SDS011;54886;47.036;15.466;2022-09-02T13:37:34;6.25;;;1.52;;
68097;SDS011;54886;47.036;15.466;2022-09-02T13:42:58;1.65;;;1.50;;
68097;SDS011;54886;47.036;15.466;2022-09-02T13:45:26;2.15;;;1.60;;
68097;SDS011;54886;47.036;15.466;2022-09-02T13:47:57;3.22;;;1.60;;
68097;SDS011;54886;47.036;15.466;2022-09-02T13:50:26;1.95;;;1.40;;
68097;SDS011;54886;47.036;15.466;2022-09-02T13:52:54;3.22;;;1.50;;
68097;SDS011;54886;47.036;15.466;2022-09-02T13:55:22;1.73;;;1.48;;
68097;SDS011;54886;47.036;15.466;2022-09-02T13:57:57;1.75;;;1.58;;
68097;SDS011;54886;47.036;15.466;2022-09-02T14:00:30;3.28;;;1.48;;
68097;SDS011;54886;47.036;15.466;2022-09-02T14:03:02;2.92;;;1.50;;
68097;SDS011;54886;47.036;15.466;2022-09-02T14:05:35;2.20;;;1.40;;
68097;SDS011;54886;47.036;15.466;2022-09-02T14:08:05;4.28;;;1.48;;
68097;SDS011;54886;47.036;15.466;2022-09-02T14:10:35;4.43;;;1.40;;
68097;SDS011;54886;47.036;15.466;2022-09-02T14:13:03;2.75;;;1.42;;
68097;SDS011;54886;47.036;15.466;2022-09-02T14:18:15;2.35;;;1.50;;
68097;SDS011;54886;47.036;15.466;2022-09-02T14:23:20;2.05;;;1.50;;
68097;SDS011;54886;47.036;15.466;2022-09-02T14:25:50;2.80;;;1.40;;
68097;SDS011;54886;47.036;15.466;2022-09-02T14:28:19;2.35;;;1.40;;
68097;SDS011;54886;47.036;15.466;2022-09-02T14:30:57;3.38;;;1.70;;
68097;SDS011;54886;47.036;15.466;2022-09-02T14:33:43;1.52;;;1.42;;
68097;SDS011;54886;47.036;15.466;2022-09-02T14:38:54;1.95;;;1.50;;
68097;SDS011;54886;47.036;15.466;2022-09-02T14:41:32;3.47;;;1.40;;
68097;SDS011;54886;47.036;15.466;2022-09-02T14:44:10;3.47;;;1.50;;
68097;SDS011;54886;47.036;15.466;2022-09-02T14:46:46;4.70;;;1.40;;
68097;SDS011;54886;47.036;15.466;2022-09-02T14:52:25;2.67;;;1.58;;
68097;SDS011;54886;47.036;15.466;2022-09-02T14:54:50;3.78;;;1.60;;
68097;SDS011;54886;47.036;15.466;2022-09-02T14:59:58;3.10;;;1.70;;
68097;SDS011;54886;47.036;15.466;2022-09-02T15:04:50;2.47;;;1.42;;
68097;SDS011;54886;47.036;15.466;2022-09-02T15:07:16;2.03;;;1.40;;
68097;SDS011;54886;47.036;15.466;2022-09-02T15:09:41;1.73;;;1.35;;
68097;SDS011;54886;47.036;15.466;2022-09-02T15:12:10;2.85;;;1.55;;
68097;SDS011;54886;47.036;15.466;2022-09-02T15:14:36;2.55;;;1.60;;
68097;SDS011;54886;47.036;15.466;2022-09-02T15:17:03;1.77;;;1.50;;
68097;SDS011;54886;47.036;15.466;2022-09-02T15:19:31;1.77;;;1.40;;
68097;SDS011;54886;47.036;15.466;2022-09-02T15:21:57;1.85;;;1.58;;
68097;SDS011;54886;47.036;15.466;2022-09-02T15:24:23;3.08;;;1.60;;
68097;SDS011;54886;47.036;15.466;2022-09-02T15:26:48;2.13;;;1.40;;
68097;SDS011;54886;47.036;15.466;2022-09-02T15:29:13;1.90;;;1.42;;
68097;SDS011;54886;47.036;15.466;2022-09-02T15:31:39;1.88;;;1.40;;
68097;SDS011;54886;47.036;15.466;2022-09-02T15:34:06;1.50;;;1.40;;
68097;SDS011;54886;47.036;15.466;2022-09-02T15:36:31;4.07;;;1.50;;
68097;SDS011;54886;47.036;15.466;2022-09-02T15:38:56;2.10;;;1.48;;
68097;SDS011;54886;47.036;15.466;2022-09-02T15:41:22;1.70;;;1.40;;
68097;SDS011;54886;47.036;15.466;2022-09-02T15:43:49;3.58;;;1.70;;
68097;SDS011;54886;47.036;15.466;2022-09-02T15:46:30;2.78;;;1.50;;
68097;SDS011;54886;47.036;15.466;2022-09-02T15:48:59;4.57;;;1.45;;
68097;SDS011;54886;47.036;15.466;2022-09-02T15:51:26;2.35;;;1.50;;
68097;SDS011;54886;47.036;15.466;2022-09-02T15:53:59;1.60;;;1.45;;
68097;SDS011;54886;47.036;15.466;2022-09-02T15:56:26;3.65;;;1.48;;
68097;SDS011;54886;47.036;15.466;2022-09-02T15:58:53;1.77;;;1.60;;
68097;SDS011;54886;47.036;15.466;2022-09-02T16:01:24;2.15;;;1.40;;
68097;SDS011;54886;47.036;15.466;2022-09-02T16:03:50;4.05;;;1.40;;
68097;SDS011;54886;47.036;15.466;2022-09-02T16:06:16;1.90;;;1.52;;
68097;SDS011;54886;47.036;15.466;2022-09-02T16:08:41;4.47;;;1.55;;
68097;SDS011;54886;47.036;15.466;2022-09-02T16:11:07;3.38;;;1.50;;
68097;SDS011;54886;47.036;15.466;2022-09-02T16:13:33;4.10;;;1.50;;
68097;SDS011;54886;47.036;15.466;2022-09-02T16:16:01;2.30;;;1.50;;
68097;SDS011;54886;47.036;15.466;2022-09-02T16:20:53;3.15;;;1.55;;
68097;SDS011;54886;47.036;15.466;2022-09-02T16:23:18;1.85;;;1.40;;
68097;SDS011;54886;47.036;15.466;2022-09-02T16:25:44;2.35;;;1.65;;
68097;SDS011;54886;47.036;15.466;2022-09-02T16:28:09;3.50;;;1.60;;
68097;SDS011;54886;47.036;15.466;2022-09-02T16:30:36;4.65;;;1.70;;
68097;SDS011;54886;47.036;15.466;2022-09-02T16:33:01;3.28;;;1.80;;
68097;SDS011;54886;47.036;15.466;2022-09-02T16:35:27;4.25;;;1.70;;
68097;SDS011;54886;47.036;15.466;2022-09-02T16:37:52;4.57;;;1.65;;
68097;SDS011;54886;47.036;15.466;2022-09-02T16:40:21;3.15;;;1.80;;
68097;SDS011;54886;47.036;15.466;2022-09-02T16:42:47;2.47;;;1.88;;
68097;SDS011;54886;47.036;15.466;2022-09-02T16:45:13;3.15;;;1.70;;
68097;SDS011;54886;47.036;15.466;2022-09-02T16:47:39;4.35;;;1.58;;
68097;SDS011;54886;47.036;15.466;2022-09-02T16:50:04;4.53;;;1.60;;
68097;SDS011;54886;47.036;15.466;2022-09-02T16:52:31;2.95;;;1.52;;
68097;SDS011;54886;47.036;15.466;2022-09-02T16:54:59;1.73;;;1.50;;
68097;SDS011;54886;47.036;15.466;2022-09-02T16:57:24;3.38;;;1.67;;
68097;SDS011;54886;47.036;15.466;2022-09-02T16:59:50;2.35;;;1.65;;
68097;SDS011;54886;47.036;15.466;2022-09-02T17:02:15;1.83;;;1.60;;
68097;SDS011;54886;47.036;15.466;2022-09-02T17:04:41;4.85;;;1.67;;
68097;SDS011;54886;47.036;15.466;2022-09-02T17:07:06;2.28;;;1.60;;
68097;SDS011;54886;47.036;15.466;2022-09-02T17:09:33;4.22;;;2.10;;
68097;SDS011;54886;47.036;15.466;2022-09-02T17:11:59;2.95;;;1.50;;
68097;SDS011;54886;47.036;15.466;2022-09-02T17:14:24;2.75;;;1.88;;
68097;SDS011;54886;47.036;15.466;2022-09-02T17:16:50;4.32;;;1.50;;
68097;SDS011;54886;47.036;15.466;2022-09-02T17:19:16;3.08;;;1.70;;
68097;SDS011;54886;47.036;15.466;2022-09-02T17:21:46;3.90;;;1.60;;
68097;SDS011;54886;47.036;15.466;2022-09-02T17:24:12;4.43;;;1.70;;
68097;SDS011;54886;47.036;15.466;2022-09-02T17:26:39;4.45;;;1.80;;
68097;SDS011;54886;47.036;15.466;2022-09-02T17:29:07;3.78;;;1.85;;
68097;SDS011;54886;47.036;15.466;2022-09-02T17:31:34;3.20;;;1.70;;
68097;SDS011;54886;47.036;15.466;2022-09-02T17:34:03;2.70;;;1.70;;
68097;SDS011;54886;47.036;15.466;2022-09-02T17:36:31;3.35;;;1.60;;